Coffey, Missouri
Current Conditions -  °F | °C
As of 3:53 PM on Thursday 23 Oct 2014 (Local Time) from KLWD Reporting Station
Clear Clear  
Wind Chill: 19°   Ceiling: Unl
Heat Index: 19°   Visibility: 10mi
Dew Point: 15°   Wind: 0mph
Humidity: 76%   Direction: NA
Pressure: 30.03"   Gusts: NA
Location:  40.11°N, 94.01°W
Report Text: KLWD 232053Z AUTO 00000KT 10SM CLR 19/15 A3003 RMK AO2 SLP167 60001 T01940150 56015
Loading
Personal Weather Stations






























Interactive Weather Map
Tropical Storm Tracking
New forecast layout! Learn more

10-Day Weather Forecast

Advertisements
Track Severe Weather on mobile